Time;durP1;ratioP1;P1;durP2;ratioP2;P2;SDS_P1;SDS_P2;PMS_P1;PMS_P2;Temp;Humidity;BMP_temperature;BMP_pressure;BME280_temperature;BME280_humidity;BME280_pressure;Samples;Min_cycle;Max_cycle;Signal;HPM_P1;HPM_P2
2021/10/20 00:00:40;;;;;;;15.73;13.55;;;13.30;76.50;;;;;;4976679;28;20031;-69
2021/10/20 00:03:06;;;;;;;16.25;12.30;;;13.50;89.70;;;;;;4975404;28;20035;-69
2021/10/20 00:05:31;;;;;;;18.75;13.30;;;13.40;90.80;;;;;;4976680;28;20053;-69
2021/10/20 00:07:58;;;;;;;18.20;12.57;;;13.40;90.70;;;;;;4976471;28;20027;-68
2021/10/20 00:10:24;;;;;;;16.75;13.48;;;13.40;91.10;;;;;;4976229;28;20090;-68
2021/10/20 00:12:51;;;;;;;15.95;12.35;;;13.40;91.80;;;;;;4976684;28;20440;-68
2021/10/20 00:15:21;;;;;;;18.00;12.60;;;13.30;91.90;;;;;;4976617;28;20403;-69
2021/10/20 00:17:48;;;;;;;16.48;13.13;;;13.30;91.60;;;;;;4976472;28;20042;-70
2021/10/20 00:20:18;;;;;;;17.67;11.95;;;13.30;90.60;;;;;;4976330;28;20468;-69
2021/10/20 00:22:45;;;;;;;19.80;12.88;;;13.20;90.10;;;;;;4976583;28;20479;-70
2021/10/20 00:25:12;;;;;;;24.25;13.43;;;;;;;;;;4976296;28;20035;-69
2021/10/20 00:27:38;;;;;;;21.08;12.80;;;13.20;86.90;;;;;;4976536;28;20031;-69
2021/10/20 00:30:04;;;;;;;17.75;12.40;;;13.20;90.40;;;;;;4976226;28;20061;-70
2021/10/20 00:32:30;;;;;;;14.73;12.57;;;13.20;90.70;;;;;;4975910;28;20122;-69
2021/10/20 00:34:56;;;;;;;19.27;12.95;;;13.20;92.50;;;;;;4974839;28;20078;-69
2021/10/20 00:37:22;;;;;;;17.10;12.98;;;13.10;92.70;;;;;;4975834;28;20034;-69
2021/10/20 00:39:48;;;;;;;19.65;14.27;;;13.10;88.00;;;;;;4976062;28;20035;-69
2021/10/20 00:42:16;;;;;;;18.98;13.60;;;13.10;90.30;;;;;;4976103;28;20431;-69
2021/10/20 00:44:53;;;;;;;18.50;13.52;;;13.10;91.40;;;;;;4976117;28;20038;-68
2021/10/20 00:47:19;;;;;;;23.77;13.77;;;13.00;91.40;;;;;;4976080;28;20035;-72
2021/10/20 00:49:45;;;;;;;19.98;13.73;;;13.00;90.60;;;;;;4974551;28;20031;-70
2021/10/20 00:52:12;;;;;;;18.83;14.35;;;13.00;89.10;;;;;;4975794;28;20504;-71
2021/10/20 00:54:38;;;;;;;19.15;13.68;;;13.00;89.40;;;;;;4975896;28;20031;-68
2021/10/20 00:57:06;;;;;;;18.40;13.45;;;13.00;90.10;;;;;;4975876;28;20398;-69
2021/10/20 00:59:36;;;;;;;23.58;14.23;;;12.90;90.10;;;;;;4972619;28;20078;-69
2021/10/20 01:02:02;;;;;;;25.25;14.48;;;12.90;87.20;;;;;;4972697;28;20039;-68
2021/10/20 01:04:27;;;;;;;21.27;13.18;;;12.90;92.00;;;;;;4973722;28;20046;-69
2021/10/20 01:06:53;;;;;;;23.42;14.43;;;12.90;92.30;;;;;;4975249;28;20034;-69
2021/10/20 01:09:19;;;;;;;19.60;12.95;;;12.90;84.60;;;;;;4975508;28;20031;-69
2021/10/20 01:11:46;;;;;;;18.50;12.85;;;12.80;88.10;;;;;;4975616;28;20035;-68
2021/10/20 01:14:13;;;;;;;18.05;12.85;;;12.80;87.40;;;;;;4975098;28;20035;-70
2021/10/20 01:16:39;;;;;;;22.05;13.80;;;12.80;87.40;;;;;;4975542;28;20041;-69
2021/10/20 01:19:06;;;;;;;19.23;13.23;;;12.80;86.70;;;;;;4973697;28;20537;-68
2021/10/20 01:21:32;;;;;;;20.10;12.98;;;12.70;85.90;;;;;;4974847;28;20034;-69
2021/10/20 01:23:59;;;;;;;21.50;12.98;;;12.60;75.90;;;;;;4975285;28;20033;-69
2021/10/20 01:26:25;;;;;;;17.85;12.73;;;12.60;75.90;;;;;;4975271;28;20026;-69
2021/10/20 01:28:51;;;;;;;15.13;12.45;;;12.60;76.00;;;;;;4974816;28;20058;-70
2021/10/20 01:31:16;;;;;;;17.00;12.95;;;12.50;76.10;;;;;;4973669;28;20069;-69
2021/10/20 01:33:42;;;;;;;22.27;12.88;;;12.50;76.00;;;;;;4974933;28;20023;-70
2021/10/20 01:36:08;;;;;;;18.33;13.35;;;12.50;76.20;;;;;;4974830;28;20384;-69
2021/10/20 01:38:34;;;;;;;18.42;13.25;;;12.50;76.10;;;;;;4974748;28;20039;-70
2021/10/20 01:41:00;;;;;;;19.90;12.55;;;12.50;76.10;;;;;;4974697;28;20550;-69
2021/10/20 01:43:51;;;;;;;19.00;12.23;;;12.50;76.20;;;;;;4974705;28;20058;-69
2021/10/20 01:46:20;;;;;;;16.60;12.43;;;12.40;76.20;;;;;;4974689;28;20035;-71
2021/10/20 01:48:46;;;;;;;16.05;12.20;;;12.40;76.20;;;;;;4974624;28;20027;-69
2021/10/20 01:51:13;;;;;;;17.40;12.18;;;12.40;76.20;;;;;;4974059;28;20031;-69
2021/10/20 01:53:39;;;;;;;15.95;12.25;;;12.40;76.30;;;;;;4974732;28;20432;-68
2021/10/20 01:56:06;;;;;;;17.65;12.43;;;12.40;76.40;;;;;;4974581;28;20027;-69
2021/10/20 01:58:32;;;;;;;15.13;11.00;;;12.40;76.30;;;;;;4974490;28;20069;-71
2021/10/20 02:00:58;;;;;;;17.10;12.07;;;12.40;76.20;;;;;;4974542;28;20058;-68
2021/10/20 02:03:27;;;;;;;17.00;11.93;;;12.40;75.90;;;;;;4974421;28;20066;-69
2021/10/20 02:05:54;;;;;;;15.55;11.85;;;;;;;;;;4974377;28;20061;-68
2021/10/20 02:08:20;;;;;;;18.02;11.95;;;12.30;75.30;;;;;;4974594;28;20029;-69
2021/10/20 02:10:46;;;;;;;16.48;11.68;;;12.30;75.80;;;;;;4974367;28;20420;-69
2021/10/20 02:13:11;;;;;;;15.70;11.77;;;12.30;75.80;;;;;;4973635;28;20061;-70
2021/10/20 02:15:37;;;;;;;14.93;11.50;;;12.20;75.80;;;;;;4974169;28;20022;-68
2021/10/20 02:18:03;;;;;;;14.65;10.98;;;12.20;75.80;;;;;;4974367;28;20387;-69
2021/10/20 02:20:28;;;;;;;13.60;10.90;;;12.20;75.90;;;;;;4989093;28;20055;-69
2021/10/20 02:22:54;;;;;;;13.65;10.80;;;12.20;76.00;;;;;;4974448;28;20167;-70
2021/10/20 02:25:22;;;;;;;13.63;11.15;;;12.20;76.00;;;;;;4974308;28;20489;-69
2021/10/20 02:27:48;;;;;;;15.27;11.43;;;12.20;75.90;;;;;;4974298;28;20027;-68
2021/10/20 02:30:14;;;;;;;13.98;10.43;;;12.20;75.70;;;;;;4698018;22;20066;-71
2021/10/20 02:32:41;;;;;;;12.98;10.07;;;12.10;75.80;;;;;;5012806;28;20528;-69
2021/10/20 02:35:08;;;;;;;16.15;10.68;;;12.10;75.80;;;;;;5013099;28;20088;-69
2021/10/20 02:37:34;;;;;;;14.80;11.02;;;12.10;75.90;;;;;;5013115;28;20061;-70
2021/10/20 02:40:01;;;;;;;15.63;10.25;;;12.10;75.90;;;;;;5013265;28;20033;-70
2021/10/20 02:42:27;;;;;;;16.48;10.63;;;12.10;76.00;;;;;;5013414;28;20029;-69
2021/10/20 02:44:53;;;;;;;15.73;10.68;;;12.00;76.10;;;;;;5013024;28;20377;-68
2021/10/20 02:47:18;;;;;;;12.73;10.50;;;12.00;76.30;;;;;;5013091;28;20026;-70
2021/10/20 02:49:44;;;;;;;17.70;10.40;;;12.00;76.50;;;;;;5013188;28;20226;-71
2021/10/20 02:52:10;;;;;;;21.77;11.40;;;12.00;76.70;;;;;;5013005;28;20080;-71
2021/10/20 02:54:36;;;;;;;13.02;10.40;;;12.00;76.50;;;;;;5013361;28;20053;-68
2021/10/20 02:57:02;;;;;;;13.68;10.93;;;12.00;76.70;;;;;;5013092;28;20022;-69
2021/10/20 02:59:27;;;;;;;14.55;10.35;;;12.00;76.50;;;;;;5013069;28;20041;-70
2021/10/20 03:01:53;;;;;;;14.82;10.00;;;12.00;77.10;;;;;;5012976;28;20046;-69
2021/10/20 03:04:19;;;;;;;13.25;9.55;;;12.00;76.50;;;;;;5013068;28;20029;-69
2021/10/20 03:06:44;;;;;;;14.95;10.00;;;12.00;76.20;;;;;;5012967;28;20018;-70
2021/10/20 03:09:11;;;;;;;14.98;11.05;;;12.00;75.90;;;;;;5012898;28;20077;-69
2021/10/20 03:11:37;;;;;;;14.30;10.82;;;11.90;76.10;;;;;;5012969;28;20061;-68
2021/10/20 03:14:02;;;;;;;15.90;10.60;;;11.90;76.00;;;;;;5012851;28;20393;-69
2021/10/20 03:16:28;;;;;;;15.15;10.23;;;11.90;76.20;;;;;;5012808;28;20026;-70
2021/10/20 03:18:55;;;;;;;15.13;11.32;;;11.90;76.20;;;;;;5012694;28;20490;-71
2021/10/20 03:21:21;;;;;;;14.00;10.93;;;11.90;76.30;;;;;;5012811;28;20022;-69
2021/10/20 03:23:47;;;;;;;14.77;10.88;;;11.90;76.30;;;;;;5014292;28;20428;-68
2021/10/20 03:26:13;;;;;;;14.40;9.95;;;11.80;76.20;;;;;;5015187;28;20025;-69
2021/10/20 03:28:39;;;;;;;13.90;10.18;;;11.90;76.10;;;;;;5016483;28;20461;-69
2021/10/20 03:31:05;;;;;;;12.70;9.40;;;11.80;76.30;;;;;;5016176;28;20044;-69
2021/10/20 03:33:30;;;;;;;12.15;9.70;;;11.80;76.30;;;;;;5016332;28;20026;-69
2021/10/20 03:35:56;;;;;;;14.00;9.68;;;11.80;76.00;;;;;;5016466;28;20105;-69
2021/10/20 03:38:22;;;;;;;13.80;9.57;;;11.80;75.90;;;;;;5016079;28;20034;-69
2021/10/20 03:40:47;;;;;;;16.45;10.32;;;11.80;76.00;;;;;;5016131;28;20025;-69
2021/10/20 03:43:13;;;;;;;12.95;9.88;;;11.80;78.50;;;;;;5016261;28;20465;-70
2021/10/20 03:45:39;;;;;;;13.63;10.00;;;11.80;94.20;;;;;;5016002;28;20026;-69
2021/10/20 03:48:04;;;;;;;18.73;10.15;;;11.80;94.50;;;;;;5016198;28;20022;-70
2021/10/20 03:50:30;;;;;;;11.45;9.50;;;11.70;78.00;;;;;;5016198;28;20024;-69
2021/10/20 03:52:56;;;;;;;11.43;9.43;;;11.60;76.00;;;;;;5016132;28;20080;-70
2021/10/20 03:55:22;;;;;;;11.18;9.45;;;11.60;75.90;;;;;;5016105;28;20097;-70
2021/10/20 03:57:47;;;;;;;12.07;9.02;;;11.60;76.00;;;;;;5015875;28;20104;-69
2021/10/20 04:00:18;;;;;;;10.63;9.43;;;11.60;75.90;;;;;;5015703;28;20065;-68
2021/10/20 04:02:46;;;;;;;15.38;9.90;;;11.60;75.80;;;;;;5016006;28;20022;-69
2021/10/20 04:05:19;;;;;;;12.82;10.07;;;11.60;75.90;;;;;;5015783;28;20022;-68
2021/10/20 04:07:47;;;;;;;15.23;9.80;;;11.60;75.80;;;;;;5015902;28;20022;-68
2021/10/20 04:10:16;;;;;;;11.90;9.68;;;11.70;85.10;;;;;;5015646;28;20029;-68
2021/10/20 04:12:42;;;;;;;12.82;9.73;;;11.60;83.00;;;;;;5015652;28;20018;-69
2021/10/20 04:15:09;;;;;;;11.90;9.80;;;11.70;80.90;;;;;;5015687;28;20022;-68
2021/10/20 04:17:35;;;;;;;14.55;10.13;;;11.50;75.90;;;;;;5015824;28;20018;-70
2021/10/20 04:20:01;;;;;;;14.18;11.35;;;11.50;75.70;;;;;;5015632;28;20096;-69
2021/10/20 04:22:27;;;;;;;14.15;11.02;;;;;;;;;;5014249;28;20177;-69
2021/10/20 04:24:53;;;;;;;13.70;10.27;;;;;;;;;;5015654;28;20393;-69
2021/10/20 04:27:19;;;;;;;16.67;10.30;;;11.40;89.70;;;;;;5015290;28;20473;-68
2021/10/20 04:29:44;;;;;;;13.52;10.50;;;11.50;80.60;;;;;;5014046;28;20033;-68
2021/10/20 04:32:10;;;;;;;13.40;10.30;;;11.50;82.80;;;;;;5015413;28;20042;-68
2021/10/20 04:34:36;;;;;;;14.90;10.32;;;11.40;92.60;;;;;;5014794;28;20029;-68
2021/10/20 04:37:02;;;;;;;15.85;10.93;;;11.40;93.50;;;;;;5014900;28;20029;-69
2021/10/20 04:39:27;;;;;;;17.60;11.77;;;11.30;92.00;;;;;;5015068;28;20096;-69
2021/10/20 04:41:53;;;;;;;15.40;11.18;;;11.30;90.70;;;;;;5015078;28;20467;-69
2021/10/20 04:44:19;;;;;;;14.13;10.95;;;11.30;90.40;;;;;;5014948;28;20026;-70
2021/10/20 04:46:44;;;;;;;19.80;11.15;;;11.30;84.80;;;;;;5014744;28;20072;-69
2021/10/20 04:49:10;;;;;;;15.77;10.82;;;11.30;80.70;;;;;;5014830;28;20108;-70
2021/10/20 04:51:36;;;;;;;20.65;12.18;;;11.30;83.60;;;;;;5015003;28;20033;-70
2021/10/20 04:54:01;;;;;;;17.92;11.43;;;11.30;84.90;;;;;;5014955;28;20036;-70
2021/10/20 04:56:27;;;;;;;13.30;11.50;;;11.20;84.30;;;;;;5014879;28;20385;-69
2021/10/20 04:58:53;;;;;;;17.77;13.45;;;11.20;84.00;;;;;;5014622;28;20149;-68
2021/10/20 05:01:18;;;;;;;16.13;14.43;;;11.20;83.70;;;;;;5014719;28;20386;-68
2021/10/20 05:03:44;;;;;;;19.80;15.80;;;11.20;83.70;;;;;;5014812;28;20022;-71
2021/10/20 05:06:10;;;;;;;23.08;13.10;;;11.20;83.40;;;;;;5014835;28;20032;-70
2021/10/20 05:08:35;;;;;;;24.48;14.60;;;11.30;83.00;;;;;;5014707;28;20038;-71
2021/10/20 05:11:01;;;;;;;20.92;15.57;;;11.20;83.00;;;;;;5014476;28;20025;-69
2021/10/20 05:13:27;;;;;;;25.77;19.48;;;11.20;88.50;;;;;;5014505;28;20033;-71
2021/10/20 05:15:52;;;;;;;23.63;20.00;;;11.10;76.50;;;;;;5014638;28;20026;-69
2021/10/20 05:18:18;;;;;;;27.30;22.17;;;11.10;83.20;;;;;;5014432;28;20069;-71
2021/10/20 05:20:44;;;;;;;28.15;20.75;;;11.10;81.80;;;;;;5014263;28;20038;-68
2021/10/20 05:23:12;;;;;;;28.08;22.80;;;11.20;81.90;;;;;;5014199;28;20474;-68
2021/10/20 05:25:38;;;;;;;36.92;26.08;;;11.20;81.80;;;;;;5014243;28;20417;-71
2021/10/20 05:28:05;;;;;;;38.67;28.20;;;11.10;82.40;;;;;;5014390;28;20040;-69
2021/10/20 05:30:31;;;;;;;32.15;24.42;;;11.10;83.40;;;;;;5014053;28;20030;-69
2021/10/20 05:32:57;;;;;;;31.38;26.70;;;11.10;82.50;;;;;;5014095;28;20096;-70
2021/10/20 05:35:23;;;;;;;32.65;25.70;;;11.10;82.00;;;;;;5014086;28;20478;-71
2021/10/20 05:37:51;;;;;;;35.45;27.88;;;11.10;81.70;;;;;;5014113;28;20083;-68
2021/10/20 05:40:18;;;;;;;34.67;27.75;;;11.10;81.50;;;;;;5013862;28;20034;-71
2021/10/20 05:42:45;;;;;;;37.55;28.08;;;11.10;82.40;;;;;;5014022;28;20454;-68
2021/10/20 05:45:11;;;;;;;32.85;28.25;;;11.10;82.50;;;;;;5013953;28;20579;-68
2021/10/20 05:47:36;;;;;;;41.78;24.83;;;11.10;83.80;;;;;;5014003;28;20030;-72
2021/10/20 05:50:03;;;;;;;34.13;25.98;;;11.10;83.80;;;;;;5013822;28;20033;-68
2021/10/20 05:52:29;;;;;;;30.33;23.58;;;11.20;83.30;;;;;;5013824;28;20470;-71
2021/10/20 05:54:54;;;;;;;29.88;22.42;;;11.10;82.40;;;;;;5014187;28;20072;-71
2021/10/20 05:57:22;;;;;;;32.28;20.02;;;11.10;91.00;;;;;;5013605;28;20034;-72
2021/10/20 05:59:48;;;;;;;24.95;19.30;;;11.00;76.40;;;;;;5013706;28;20505;-69
2021/10/20 06:02:14;;;;;;;32.30;20.02;;;10.90;76.40;;;;;;5013688;28;20034;-72
2021/10/20 06:04:42;;;;;;;28.58;18.40;;;11.00;76.70;;;;;;5013573;28;20028;-72
2021/10/20 06:07:08;;;;;;;25.92;18.80;;;10.90;76.60;;;;;;5012437;28;20076;-72
2021/10/20 06:09:34;;;;;;;25.05;19.25;;;11.00;76.80;;;;;;5012430;28;20034;-69
2021/10/20 06:12:01;;;;;;;29.05;20.02;;;11.00;77.20;;;;;;5010460;28;20022;-72
2021/10/20 06:14:27;;;;;;;22.65;17.52;;;11.00;77.30;;;;;;5010782;28;20033;-72
2021/10/20 06:16:53;;;;;;;24.75;18.45;;;11.00;77.30;;;;;;5012158;28;20021;-72
2021/10/20 06:19:19;;;;;;;26.38;18.73;;;11.00;77.30;;;;;;5013197;28;20493;-72
2021/10/20 06:21:44;;;;;;;27.58;19.27;;;11.10;77.50;;;;;;5009572;28;20053;-72
2021/10/20 06:24:10;;;;;;;32.15;17.70;;;11.10;77.40;;;;;;5009875;28;20384;-74
2021/10/20 06:26:36;;;;;;;29.42;17.05;;;11.10;77.50;;;;;;5009935;28;20025;-69
2021/10/20 06:29:02;;;;;;;25.08;16.15;;;11.10;77.70;;;;;;5010551;28;20034;-72
2021/10/20 06:31:28;;;;;;;27.77;17.33;;;11.10;77.90;;;;;;5012563;28;20149;-72
2021/10/20 06:33:54;;;;;;;41.80;17.50;;;11.20;78.00;;;;;;5012379;28;20108;-67
2021/10/20 06:36:20;;;;;;;24.10;18.13;;;11.20;78.60;;;;;;5012413;28;20033;-66
2021/10/20 06:38:46;;;;;;;35.17;19.67;;;11.20;78.70;;;;;;5012454;28;20042;-69
2021/10/20 06:41:12;;;;;;;29.35;19.05;;;11.20;79.20;;;;;;5012538;28;20478;-67
2021/10/20 06:43:38;;;;;;;25.80;19.38;;;11.20;79.50;;;;;;5013039;28;20411;-69
2021/10/20 06:46:03;;;;;;;23.23;18.40;;;11.30;79.50;;;;;;5012429;28;20029;-67
2021/10/20 06:48:29;;;;;;;28.52;18.23;;;11.50;91.50;;;;;;5011118;28;20033;-68
2021/10/20 06:50:55;;;;;;;28.20;17.95;;;11.50;80.60;;;;;;5000431;28;20022;-68
2021/10/20 06:53:20;;;;;;;24.90;17.23;;;11.50;79.80;;;;;;5012986;28;20038;-69
2021/10/20 06:55:46;;;;;;;25.73;18.55;;;11.60;79.20;;;;;;5012743;28;20022;-68
2021/10/20 06:58:12;;;;;;;52.40;20.63;;;11.60;78.90;;;;;;5013389;28;20038;-68
2021/10/20 07:00:37;;;;;;;27.00;19.17;;;11.60;79.00;;;;;;5016419;28;20060;-69
2021/10/20 07:03:03;;;;;;;31.30;20.08;;;11.60;79.60;;;;;;5016734;28;20105;-67
2021/10/20 07:05:29;;;;;;;29.45;19.67;;;11.70;79.40;;;;;;5016715;28;20054;-70
2021/10/20 07:07:55;;;;;;;27.38;20.02;;;11.70;79.30;;;;;;5016530;28;20029;-70
2021/10/20 07:10:20;;;;;;;30.02;19.80;;;11.80;79.50;;;;;;5016501;28;20110;-74
2021/10/20 07:12:49;;;;;;;28.40;20.17;;;11.90;83.40;;;;;;5016387;28;20462;-73
2021/10/20 07:15:14;;;;;;;29.35;20.95;;;11.90;79.50;;;;;;5016414;28;20474;-72
2021/10/20 07:17:40;;;;;;;27.25;20.30;;;11.90;79.60;;;;;;5016614;28;20037;-69
2021/10/20 07:20:08;;;;;;;37.67;22.55;;;11.90;79.60;;;;;;5016500;28;20048;-69
2021/10/20 07:22:38;;;;;;;32.13;23.00;;;11.90;79.80;;;;;;5016434;28;20458;-68
2021/10/20 07:25:06;;;;;;;33.15;22.65;;;12.00;79.60;;;;;;5016465;28;20025;-68
2021/10/20 07:27:34;;;;;;;34.22;22.75;;;12.00;79.60;;;;;;5016220;28;20050;-69
2021/10/20 07:30:00;;;;;;;40.05;23.88;;;12.10;79.50;;;;;;5016362;28;20355;-69
2021/10/20 07:32:26;;;;;;;33.95;23.33;;;12.20;82.50;;;;;;5015679;28;20133;-68
2021/10/20 07:34:52;;;;;;;33.05;22.73;;;12.30;82.20;;;;;;5015117;28;20549;-68
2021/10/20 07:37:17;;;;;;;34.22;23.02;;;12.30;85.70;;;;;;5016260;28;20029;-69
2021/10/20 07:39:43;;;;;;;40.88;23.50;;;12.30;82.00;;;;;;5016146;28;20030;-69
2021/10/20 07:42:09;;;;;;;33.58;22.90;;;12.40;85.00;;;;;;5016369;28;20022;-68
2021/10/20 07:44:34;;;;;;;33.25;22.67;;;12.40;81.20;;;;;;5015832;28;20030;-68
2021/10/20 07:47:00;;;;;;;34.20;21.27;;;12.40;79.50;;;;;;5016171;28;20018;-68
2021/10/20 07:49:26;;;;;;;33.33;22.40;;;12.40;79.20;;;;;;5016064;28;20028;-70
2021/10/20 07:51:56;;;;;;;31.23;21.67;;;12.40;79.20;;;;;;5016119;28;20100;-68
2021/10/20 07:54:23;;;;;;;33.15;22.50;;;12.60;81.10;;;;;;5016192;28;20022;-68
2021/10/20 07:56:50;;;;;;;29.73;21.67;;;;;;;;;;5016117;28;20433;-69
2021/10/20 07:59:16;;;;;;;30.45;20.77;;;12.50;78.90;;;;;;5015813;28;20453;-69
2021/10/20 08:01:41;;;;;;;29.98;19.05;;;12.60;79.90;;;;;;5015691;28;20089;-69
2021/10/20 08:04:07;;;;;;;34.58;20.88;;;;;;;;;;5015837;28;20112;-69
2021/10/20 08:06:33;;;;;;;31.50;20.92;;;12.70;99.00;;;;;;5015971;28;20053;-69
2021/10/20 08:08:59;;;;;;;34.10;21.88;;;12.60;80.30;;;;;;5015647;28;20033;-69
2021/10/20 08:11:25;;;;;;;32.65;22.48;;;12.70;80.10;;;;;;5014611;28;20088;-69
2021/10/20 08:13:50;;;;;;;37.05;23.67;;;12.70;79.80;;;;;;5015707;28;20080;-69
2021/10/20 08:16:16;;;;;;;32.33;22.25;;;12.80;79.50;;;;;;5015513;28;20068;-69
2021/10/20 08:18:42;;;;;;;37.53;24.63;;;12.80;79.30;;;;;;5015458;28;20047;-70
2021/10/20 08:21:08;;;;;;;37.88;25.75;;;12.90;79.00;;;;;;5015337;28;20428;-69
2021/10/20 08:23:33;;;;;;;45.78;26.95;;;12.90;79.10;;;;;;5015392;28;20060;-68
2021/10/20 08:25:59;;;;;;;38.17;27.80;;;12.90;79.00;;;;;;5015437;28;20474;-69
2021/10/20 08:28:25;;;;;;;37.20;25.88;;;13.00;79.00;;;;;;5015615;28;20026;-68
2021/10/20 08:30:51;;;;;;;42.80;28.15;;;13.00;78.90;;;;;;5015181;28;20038;-68
2021/10/20 08:33:17;;;;;;;43.38;27.20;;;13.10;78.80;;;;;;5015371;28;20398;-69
2021/10/20 08:35:43;;;;;;;48.53;27.17;;;13.10;78.40;;;;;;5015238;28;20022;-68
2021/10/20 08:38:09;;;;;;;46.30;26.55;;;13.10;78.00;;;;;;5015066;28;20041;-68
2021/10/20 08:40:37;;;;;;;38.55;24.75;;;13.20;77.90;;;;;;5015312;28;20022;-68
2021/10/20 08:43:04;;;;;;;41.30;26.33;;;13.20;78.30;;;;;;5015325;28;20073;-68
2021/10/20 08:45:30;;;;;;;37.85;24.63;;;13.30;78.50;;;;;;5014929;28;20029;-68
2021/10/20 08:47:57;;;;;;;41.53;23.65;;;13.30;78.50;;;;;;5014749;28;20030;-68
2021/10/20 08:50:28;;;;;;;30.48;21.67;;;13.30;78.20;;;;;;5014543;28;20033;-68
2021/10/20 08:52:55;;;;;;;36.25;23.63;;;13.40;78.10;;;;;;5014683;28;20046;-68
2021/10/20 08:55:22;;;;;;;35.72;22.38;;;13.40;78.10;;;;;;5014984;28;20025;-68
2021/10/20 08:57:49;;;;;;;37.58;21.17;;;13.40;78.10;;;;;;5014863;28;20026;-68
2021/10/20 09:00:16;;;;;;;30.08;20.50;;;13.40;78.20;;;;;;5014438;28;20034;-68
2021/10/20 09:02:42;;;;;;;34.50;21.83;;;13.50;78.70;;;;;;5014687;28;20073;-68
2021/10/20 09:05:13;;;;;;;30.77;21.75;;;13.50;78.40;;;;;;5014776;28;20049;-70
2021/10/20 09:07:43;;;;;;;34.30;22.58;;;13.50;78.40;;;;;;5014814;28;20071;-69
2021/10/20 09:10:09;;;;;;;30.77;19.23;;;13.60;78.60;;;;;;5014650;28;20469;-69
2021/10/20 09:12:40;;;;;;;33.05;19.27;;;13.60;78.80;;;;;;5014719;28;20075;-70
2021/10/20 09:15:11;;;;;;;25.77;18.63;;;13.60;78.50;;;;;;5014419;28;20470;-69
2021/10/20 09:18:09;;;;;;;35.85;19.38;;;13.60;78.20;;;;;;5013764;28;20026;-69
2021/10/20 09:20:39;;;;;;;29.90;19.63;;;13.60;78.60;;;;;;5017445;28;20138;-69
2021/10/20 09:23:10;;;;;;;37.10;18.55;;;13.70;78.70;;;;;;5013987;28;20022;-70
2021/10/20 09:25:38;;;;;;;37.13;20.23;;;13.70;78.70;;;;;;5014352;28;20036;-70
2021/10/20 09:28:06;;;;;;;29.20;18.92;;;13.70;78.70;;;;;;5014238;28;20026;-70
2021/10/20 09:30:32;;;;;;;29.20;20.33;;;13.70;78.50;;;;;;5014184;28;20029;-69
2021/10/20 09:32:59;;;;;;;33.67;22.13;;;13.70;78.40;;;;;;5014160;28;20050;-69
2021/10/20 09:35:29;;;;;;;35.67;21.17;;;13.80;78.40;;;;;;5014332;28;20029;-69
2021/10/20 09:37:58;;;;;;;34.30;20.90;;;13.80;78.30;;;;;;5014019;28;20076;-69
2021/10/20 09:40:24;;;;;;;34.20;22.52;;;13.80;78.30;;;;;;5013982;28;20021;-69
2021/10/20 09:42:56;;;;;;;38.72;25.02;;;13.80;78.50;;;;;;5014218;28;20133;-69
2021/10/20 09:45:23;;;;;;;31.60;23.37;;;13.80;78.60;;;;;;5014056;28;20057;-69
2021/10/20 09:47:50;;;;;;;36.92;24.52;;;13.80;78.50;;;;;;5014073;28;20260;-69
2021/10/20 09:50:17;;;;;;;42.97;25.10;;;13.80;78.40;;;;;;5013558;28;20100;-69
2021/10/20 09:52:49;;;;;;;42.13;24.75;;;13.80;78.50;;;;;;5014038;28;20037;-69
2021/10/20 09:55:23;;;;;;;46.50;25.60;;;13.90;78.70;;;;;;5013940;28;20033;-73
2021/10/20 09:57:49;;;;;;;38.20;24.30;;;13.90;78.50;;;;;;5013329;28;20044;-69
2021/10/20 10:00:15;;;;;;;44.25;27.45;;;14.00;78.60;;;;;;5013523;28;20069;-69
2021/10/20 10:02:41;;;;;;;780.75;83.50;;;14.00;78.60;;;;;;5013502;28;20436;-70
2021/10/20 10:05:07;;;;;;;74.40;31.27;;;14.00;80.80;;;;;;5013576;28;20021;-71
2021/10/20 10:07:33;;;;;;;45.30;31.52;;;14.10;82.10;;;;;;5013763;28;20029;-69
2021/10/20 10:09:59;;;;;;;34.53;25.95;;;14.20;81.10;;;;;;5011742;28;20022;-69
2021/10/20 10:12:28;;;;;;;46.60;29.88;;;14.20;80.70;;;;;;5013061;28;20022;-69
2021/10/20 10:15:04;;;;;;;50.90;31.25;;;14.30;80.90;;;;;;5013494;28;20041;-69
2021/10/20 10:17:31;;;;;;;53.78;29.73;;;14.30;81.00;;;;;;5013287;28;20057;-71
2021/10/20 10:20:06;;;;;;;46.58;27.80;;;14.40;81.50;;;;;;5013132;28;20095;-70
2021/10/20 10:22:32;;;;;;;45.75;28.83;;;14.50;82.80;;;;;;5013215;28;20029;-70
2021/10/20 10:25:07;;;;;;;48.00;29.83;;;14.50;80.40;;;;;;5013255;28;20026;-70
2021/10/20 10:27:35;;;;;;;1999.90;213.88;;;14.50;79.70;;;;;;5013314;28;20386;-71
2021/10/20 10:30:16;;;;;;;494.17;85.63;;;14.60;88.20;;;;;;5013272;28;20377;-70
2021/10/20 10:32:46;;;;;;;65.63;45.97;;;14.70;91.70;;;;;;5012769;28;20490;-70
2021/10/20 10:35:12;;;;;;;67.68;51.25;;;14.80;90.80;;;;;;5013170;28;20037;-69
2021/10/20 10:37:38;;;;;;;57.60;38.50;;;14.80;90.30;;;;;;5013345;28;20026;-70
2021/10/20 10:40:22;;;;;;;1999.90;488.60;;;14.80;88.40;;;;;;5013254;28;20372;-70
2021/10/20 10:42:49;;;;;;;77.18;51.55;;;14.90;92.70;;;;;;5013596;28;20018;-70
2021/10/20 10:45:17;;;;;;;245.18;61.22;;;14.90;91.30;;;;;;5013289;28;20145;-70
2021/10/20 10:48:02;;;;;;;875.80;86.00;;;14.80;88.70;;;;;;5013325;28;20350;-70
2021/10/20 10:50:40;;;;;;;68.97;47.45;;;14.90;88.60;;;;;;5012072;28;20128;-70
2021/10/20 10:53:06;;;;;;;64.38;44.30;;;14.90;89.40;;;;;;5013135;28;20413;-70
2021/10/20 10:55:32;;;;;;;61.58;45.22;;;14.90;87.00;;;;;;5013061;28;20022;-69
2021/10/20 10:58:02;;;;;;;76.15;50.35;;;14.90;85.30;;;;;;5012662;28;20046;-69
2021/10/20 11:00:35;;;;;;;74.35;50.95;;;15.00;84.60;;;;;;5012639;28;20018;-69
2021/10/20 11:03:10;;;;;;;65.10;45.10;;;15.00;85.30;;;;;;5013095;28;20030;-69
2021/10/20 11:05:36;;;;;;;64.85;48.92;;;15.00;84.20;;;;;;5013149;28;20018;-69
2021/10/20 11:08:01;;;;;;;136.57;57.80;;;15.10;84.40;;;;;;5012667;28;20385;-69
2021/10/20 11:10:28;;;;;;;71.93;47.45;;;15.10;84.30;;;;;;5012879;28;20101;-69
2021/10/20 11:12:57;;;;;;;65.78;45.55;;;15.20;83.70;;;;;;5013149;28;20049;-69
2021/10/20 11:15:25;;;;;;;70.40;49.88;;;15.20;82.40;;;;;;5013004;28;20053;-69
2021/10/20 11:17:51;;;;;;;71.28;48.25;;;15.20;82.70;;;;;;5012995;28;20026;-69
2021/10/20 11:20:20;;;;;;;55.00;39.38;;;15.20;82.40;;;;;;5012933;28;20052;-70
2021/10/20 11:22:47;;;;;;;66.70;45.72;;;15.30;81.80;;;;;;5012674;28;20080;-70
2021/10/20 11:25:15;;;;;;;56.67;38.28;;;15.30;83.20;;;;;;5012758;28;20145;-70
2021/10/20 11:27:55;;;;;;;48.72;36.65;;;15.30;82.10;;;;;;5012607;28;20037;-69
2021/10/20 11:30:24;;;;;;;54.05;36.55;;;15.30;81.50;;;;;;5012980;28;20022;-69
2021/10/20 11:32:50;;;;;;;177.15;63.95;;;15.30;81.50;;;;;;5012570;28;20157;-70
2021/10/20 11:35:20;;;;;;;57.17;43.35;;;15.40;83.00;;;;;;5012812;28;20105;-69
2021/10/20 11:38:01;;;;;;;267.48;99.68;;;15.40;82.90;;;;;;5012395;28;20111;-70
2021/10/20 11:40:37;;;;;;;1999.90;218.10;;;15.40;84.40;;;;;;5012248;28;20030;-69
2021/10/20 11:43:11;;;;;;;1936.35;215.55;;;15.50;88.70;;;;;;5012839;28;20033;-70
2021/10/20 11:45:37;;;;;;;244.50;110.70;;;15.60;91.50;;;;;;5015225;28;20026;-70
2021/10/20 11:48:03;;;;;;;802.25;90.90;;;15.70;94.50;;;;;;5016124;28;20026;-70
2021/10/20 11:50:30;;;;;;;62.83;45.15;;;15.80;95.10;;;;;;5014681;28;20397;-70
2021/10/20 11:52:59;;;;;;;66.25;46.13;;;15.70;93.80;;;;;;5015923;28;20030;-70
2021/10/20 11:55:24;;;;;;;65.00;45.15;;;15.60;91.40;;;;;;5016105;28;20034;-70
2021/10/20 11:57:50;;;;;;;63.67;44.20;;;15.60;90.10;;;;;;5015774;28;20366;-69
2021/10/20 12:00:16;;;;;;;61.88;44.70;;;15.60;87.90;;;;;;5031012;28;20025;-69
2021/10/20 12:02:42;;;;;;;68.95;45.42;;;15.60;86.40;;;;;;5016392;28;20022;-68
2021/10/20 12:05:07;;;;;;;65.78;46.25;;;15.60;85.70;;;;;;5015681;28;20025;-69
2021/10/20 12:07:33;;;;;;;63.15;45.35;;;15.60;84.80;;;;;;5015650;28;20022;-69
2021/10/20 12:10:02;;;;;;;61.10;44.60;;;15.60;84.30;;;;;;5015666;28;20030;-68
2021/10/20 12:12:29;;;;;;;62.05;43.47;;;15.60;83.90;;;;;;5015836;28;20018;-69
2021/10/20 12:14:57;;;;;;;59.92;45.35;;;15.50;83.50;;;;;;5015636;28;20059;-69
2021/10/20 12:17:26;;;;;;;68.60;47.53;;;15.50;83.30;;;;;;5015320;28;20053;-69
2021/10/20 12:19:58;;;;;;;66.40;46.33;;;15.50;83.30;;;;;;5015618;28;20030;-69
2021/10/20 12:22:27;;;;;;;63.13;46.22;;;15.50;83.20;;;;;;5015372;28;20046;-69
2021/10/20 12:24:54;;;;;;;64.90;45.25;;;15.50;83.10;;;;;;5015447;28;20018;-69
2021/10/20 12:27:21;;;;;;;66.38;46.53;;;15.40;82.90;;;;;;5015283;28;20026;-69